sensor_id;sensor_type;location;lat;lon;timestamp;pressure;altitude;pressure_sealevel;temperature;humidity
35331;BME280;21441;52.190;20.910;2023-04-01T00:01:49;98189.97;;;9.89;100.00
35331;BME280;21441;52.190;20.910;2023-04-01T00:04:16;98181.78;;;9.90;100.00
35331;BME280;21441;52.190;20.910;2023-04-01T00:06:45;98185.50;;;9.83;100.00
35331;BME280;21441;52.190;20.910;2023-04-01T00:09:13;98176.28;;;9.85;100.00
35331;BME280;21441;52.190;20.910;2023-04-01T00:11:40;98176.78;;;9.76;100.00
35331;BME280;21441;52.190;20.910;2023-04-01T00:14:08;98173.00;;;9.83;100.00
35331;BME280;21441;52.190;20.910;2023-04-01T00:16:36;98167.63;;;9.65;100.00
35331;BME280;21441;52.190;20.910;2023-04-01T00:19:03;98172.44;;;9.49;100.00
35331;BME280;21441;52.190;20.910;2023-04-01T00:21:30;98162.97;;;9.22;100.00
35331;BME280;21441;52.190;20.910;2023-04-01T00:23:59;98153.72;;;9.31;100.00
35331;BME280;21441;52.190;20.910;2023-04-01T00:26:26;98148.94;;;9.46;100.00
35331;BME280;21441;52.190;20.910;2023-04-01T00:28:53;98153.88;;;9.36;100.00
35331;BME280;21441;52.190;20.910;2023-04-01T00:31:20;98149.81;;;9.34;100.00
35331;BME280;21441;52.190;20.910;2023-04-01T00:33:48;98150.69;;;9.21;100.00
35331;BME280;21441;52.190;20.910;2023-04-01T00:36:17;98153.25;;;9.02;100.00
35331;BME280;21441;52.190;20.910;2023-04-01T00:38:45;98140.19;;;8.94;100.00
35331;BME280;21441;52.190;20.910;2023-04-01T00:41:15;98153.09;;;8.91;100.00
35331;BME280;21441;52.190;20.910;2023-04-01T00:43:44;98156.97;;;8.95;100.00
35331;BME280;21441;52.190;20.910;2023-04-01T00:46:12;98165.69;;;9.08;100.00
35331;BME280;21441;52.190;20.910;2023-04-01T00:48:42;98159.13;;;9.11;100.00
35331;BME280;21441;52.190;20.910;2023-04-01T00:51:14;98156.22;;;9.19;100.00
35331;BME280;21441;52.190;20.910;2023-04-01T00:53:44;98151.06;;;9.31;100.00
35331;BME280;21441;52.190;20.910;2023-04-01T00:56:15;98143.44;;;9.35;100.00
35331;BME280;21441;52.190;20.910;2023-04-01T00:58:48;98156.59;;;9.61;100.00
35331;BME280;21441;52.190;20.910;2023-04-01T01:01:17;98153.88;;;9.68;100.00
35331;BME280;21441;52.190;20.910;2023-04-01T01:03:45;98152.03;;;9.68;100.00
35331;BME280;21441;52.190;20.910;2023-04-01T01:06:30;98149.81;;;9.65;100.00
35331;BME280;21441;52.190;20.910;2023-04-01T01:09:12;98146.97;;;9.60;100.00
35331;BME280;21441;52.190;20.910;2023-04-01T01:11:46;98142.91;;;9.58;100.00
35331;BME280;21441;52.190;20.910;2023-04-01T01:14:28;98146.97;;;9.28;100.00
35331;BME280;21441;52.190;20.910;2023-04-01T01:17:06;98148.03;;;9.21;100.00
35331;BME280;21441;52.190;20.910;2023-04-01T01:20:04;98143.03;;;9.38;100.00
35331;BME280;21441;52.190;20.910;2023-04-01T01:22:50;98149.22;;;9.32;100.00
35331;BME280;21441;52.190;20.910;2023-04-01T01:25:31;98137.97;;;9.29;100.00
35331;BME280;21441;52.190;20.910;2023-04-01T01:28:11;98145.34;;;9.27;100.00
35331;BME280;21441;52.190;20.910;2023-04-01T01:30:49;98144.53;;;9.27;100.00
35331;BME280;21441;52.190;20.910;2023-04-01T01:33:25;98151.44;;;9.35;100.00
35331;BME280;21441;52.190;20.910;2023-04-01T01:35:59;98152.59;;;9.45;100.00
35331;BME280;21441;52.190;20.910;2023-04-01T01:38:31;98152.56;;;9.52;100.00
35331;BME280;21441;52.190;20.910;2023-04-01T01:41:02;98155.06;;;9.47;100.00
35331;BME280;21441;52.190;20.910;2023-04-01T01:43:33;98163.84;;;9.47;100.00
35331;BME280;21441;52.190;20.910;2023-04-01T01:46:06;98163.81;;;9.22;100.00
35331;BME280;21441;52.190;20.910;2023-04-01T01:48:36;98159.00;;;9.38;100.00
35331;BME280;21441;52.190;20.910;2023-04-01T01:51:06;98159.63;;;9.40;100.00
35331;BME280;21441;52.190;20.910;2023-04-01T01:53:33;98156.94;;;9.40;100.00
35331;BME280;21441;52.190;20.910;2023-04-01T01:56:01;98154.88;;;9.42;100.00
35331;BME280;21441;52.190;20.910;2023-04-01T01:58:30;98149.97;;;9.39;100.00
35331;BME280;21441;52.190;20.910;2023-04-01T02:01:03;98145.75;;;9.31;100.00
35331;BME280;21441;52.190;20.910;2023-04-01T02:03:35;98146.03;;;9.48;100.00
35331;BME280;21441;52.190;20.910;2023-04-01T02:06:07;98147.19;;;9.59;100.00
35331;BME280;21441;52.190;20.910;2023-04-01T02:08:36;98148.44;;;9.56;100.00
35331;BME280;21441;52.190;20.910;2023-04-01T02:11:08;98144.81;;;9.44;100.00
35331;BME280;21441;52.190;20.910;2023-04-01T02:13:40;98141.31;;;9.50;100.00
35331;BME280;21441;52.190;20.910;2023-04-01T02:16:13;98131.25;;;9.52;100.00
35331;BME280;21441;52.190;20.910;2023-04-01T02:18:42;98138.78;;;9.62;100.00
35331;BME280;21441;52.190;20.910;2023-04-01T02:21:13;98141.00;;;9.65;100.00
35331;BME280;21441;52.190;20.910;2023-04-01T02:23:41;98137.94;;;9.61;100.00
35331;BME280;21441;52.190;20.910;2023-04-01T02:26:10;98132.66;;;9.55;100.00
35331;BME280;21441;52.190;20.910;2023-04-01T02:28:39;98135.88;;;9.63;100.00
35331;BME280;21441;52.190;20.910;2023-04-01T02:31:09;98125.88;;;9.59;100.00
35331;BME280;21441;52.190;20.910;2023-04-01T02:33:38;98124.97;;;9.46;100.00
35331;BME280;21441;52.190;20.910;2023-04-01T02:36:12;98121.81;;;9.56;100.00
35331;BME280;21441;52.190;20.910;2023-04-01T02:38:40;98116.25;;;9.33;100.00
35331;BME280;21441;52.190;20.910;2023-04-01T02:41:08;98113.91;;;9.18;100.00
35331;BME280;21441;52.190;20.910;2023-04-01T02:43:35;98119.56;;;8.90;100.00
35331;BME280;21441;52.190;20.910;2023-04-01T02:46:03;98118.78;;;8.76;100.00
35331;BME280;21441;52.190;20.910;2023-04-01T02:48:30;98123.47;;;8.80;100.00
35331;BME280;21441;52.190;20.910;2023-04-01T02:50:57;98117.94;;;8.82;100.00
35331;BME280;21441;52.190;20.910;2023-04-01T02:53:26;98128.59;;;8.82;100.00
35331;BME280;21441;52.190;20.910;2023-04-01T02:55:53;98127.75;;;8.88;100.00
35331;BME280;21441;52.190;20.910;2023-04-01T02:58:20;98136.34;;;8.83;100.00
35331;BME280;21441;52.190;20.910;2023-04-01T03:00:47;98123.03;;;8.90;100.00
35331;BME280;21441;52.190;20.910;2023-04-01T03:03:14;98135.81;;;8.68;100.00
35331;BME280;21441;52.190;20.910;2023-04-01T03:05:42;98134.38;;;8.65;100.00
35331;BME280;21441;52.190;20.910;2023-04-01T03:08:09;98142.56;;;8.64;100.00
35331;BME280;21441;52.190;20.910;2023-04-01T03:10:39;98146.00;;;8.71;100.00
35331;BME280;21441;52.190;20.910;2023-04-01T03:13:06;98140.63;;;8.84;100.00
35331;BME280;21441;52.190;20.910;2023-04-01T03:15:33;98143.63;;;9.01;100.00
35331;BME280;21441;52.190;20.910;2023-04-01T03:18:00;98147.63;;;9.17;100.00
35331;BME280;21441;52.190;20.910;2023-04-01T03:20:29;98144.53;;;9.27;100.00
35331;BME280;21441;52.190;20.910;2023-04-01T03:22:56;98139.41;;;9.25;100.00
35331;BME280;21441;52.190;20.910;2023-04-01T03:25:23;98144.69;;;9.32;100.00
35331;BME280;21441;52.190;20.910;2023-04-01T03:27:52;98150.88;;;8.87;100.00
35331;BME280;21441;52.190;20.910;2023-04-01T03:30:19;98145.25;;;9.09;100.00
35331;BME280;21441;52.190;20.910;2023-04-01T03:32:46;98158.97;;;9.06;100.00
35331;BME280;21441;52.190;20.910;2023-04-01T03:35:14;98150.22;;;8.92;100.00
35331;BME280;21441;52.190;20.910;2023-04-01T03:37:41;98150.03;;;8.94;100.00
35331;BME280;21441;52.190;20.910;2023-04-01T03:40:10;98157.50;;;9.10;100.00
35331;BME280;21441;52.190;20.910;2023-04-01T03:42:37;98160.59;;;9.07;100.00
35331;BME280;21441;52.190;20.910;2023-04-01T03:45:06;98160.91;;;8.85;100.00
35331;BME280;21441;52.190;20.910;2023-04-01T03:47:34;98159.25;;;8.84;100.00
35331;BME280;21441;52.190;20.910;2023-04-01T03:50:02;98164.97;;;8.88;100.00
35331;BME280;21441;52.190;20.910;2023-04-01T03:52:29;98166.22;;;8.85;100.00
35331;BME280;21441;52.190;20.910;2023-04-01T03:54:56;98174.78;;;8.87;100.00
35331;BME280;21441;52.190;20.910;2023-04-01T03:57:23;98174.00;;;8.87;100.00
35331;BME280;21441;52.190;20.910;2023-04-01T03:59:51;98170.44;;;9.00;100.00
35331;BME280;21441;52.190;20.910;2023-04-01T04:02:19;98180.88;;;9.01;100.00
35331;BME280;21441;52.190;20.910;2023-04-01T04:04:47;98177.03;;;8.91;100.00
35331;BME280;21441;52.190;20.910;2023-04-01T04:07:14;98180.31;;;8.86;100.00
35331;BME280;21441;52.190;20.910;2023-04-01T04:09:41;98185.47;;;8.81;100.00
35331;BME280;21441;52.190;20.910;2023-04-01T04:12:08;98184.63;;;8.74;100.00
35331;BME280;21441;52.190;20.910;2023-04-01T04:14:36;98180.56;;;8.71;100.00
35331;BME280;21441;52.190;20.910;2023-04-01T04:17:03;98189.81;;;8.55;100.00
35331;BME280;21441;52.190;20.910;2023-04-01T04:19:33;98191.66;;;8.61;100.00
35331;BME280;21441;52.190;20.910;2023-04-01T04:22:00;98194.31;;;8.61;100.00
35331;BME280;21441;52.190;20.910;2023-04-01T04:24:27;98198.59;;;8.56;100.00
35331;BME280;21441;52.190;20.910;2023-04-01T04:26:54;98204.94;;;8.61;100.00
35331;BME280;21441;52.190;20.910;2023-04-01T04:29:22;98203.50;;;8.65;100.00
35331;BME280;21441;52.190;20.910;2023-04-01T04:31:49;98213.50;;;8.63;100.00
35331;BME280;21441;52.190;20.910;2023-04-01T04:34:16;98211.06;;;8.55;100.00
35331;BME280;21441;52.190;20.910;2023-04-01T04:36:45;98198.97;;;8.73;100.00
35331;BME280;21441;52.190;20.910;2023-04-01T04:39:13;98203.91;;;8.62;100.00
35331;BME280;21441;52.190;20.910;2023-04-01T04:41:40;98211.28;;;8.40;100.00
35331;BME280;21441;52.190;20.910;2023-04-01T04:44:08;98206.81;;;8.41;100.00
35331;BME280;21441;52.190;20.910;2023-04-01T04:46:35;98204.75;;;8.43;100.00
35331;BME280;21441;52.190;20.910;2023-04-01T04:49:05;98197.81;;;8.42;100.00
35331;BME280;21441;52.190;20.910;2023-04-01T04:51:32;98203.31;;;8.40;100.00
35331;BME280;21441;52.190;20.910;2023-04-01T04:54:04;98209.25;;;8.42;100.00
35331;BME280;21441;52.190;20.910;2023-04-01T04:56:31;98206.97;;;8.39;100.00
35331;BME280;21441;52.190;20.910;2023-04-01T04:58:59;98208.00;;;8.38;100.00
35331;BME280;21441;52.190;20.910;2023-04-01T05:01:26;98207.19;;;8.44;100.00
35331;BME280;21441;52.190;20.910;2023-04-01T05:03:54;98209.25;;;8.42;100.00
35331;BME280;21441;52.190;20.910;2023-04-01T05:06:21;98212.91;;;8.35;100.00
35331;BME280;21441;52.190;20.910;2023-04-01T05:08:48;98205.97;;;8.40;100.00
35331;BME280;21441;52.190;20.910;2023-04-01T05:11:17;98216.59;;;8.47;100.00
35331;BME280;21441;52.190;20.910;2023-04-01T05:13:46;98203.91;;;8.49;100.00
35331;BME280;21441;52.190;20.910;2023-04-01T05:16:15;98212.94;;;8.48;100.00
35331;BME280;21441;52.190;20.910;2023-04-01T05:18:43;98215.97;;;8.45;100.00
35331;BME280;21441;52.190;20.910;2023-04-01T05:21:11;98219.66;;;8.51;100.00
35331;BME280;21441;52.190;20.910;2023-04-01T05:23:39;98220.09;;;8.48;100.00
35331;BME280;21441;52.190;20.910;2023-04-01T05:26:08;98218.63;;;8.58;100.00
35331;BME280;21441;52.190;20.910;2023-04-01T05:28:38;98217.59;;;8.59;100.00
35331;BME280;21441;52.190;20.910;2023-04-01T05:31:06;98224.16;;;8.57;100.00
35331;BME280;21441;52.190;20.910;2023-04-01T05:33:33;98224.56;;;8.54;100.00
35331;BME280;21441;52.190;20.910;2023-04-01T05:36:08;98220.47;;;8.51;100.00
35331;BME280;21441;52.190;20.910;2023-04-01T05:38:36;98219.44;;;8.65;100.00
35331;BME280;21441;52.190;20.910;2023-04-01T05:41:04;98213.31;;;8.72;100.00
35331;BME280;21441;52.190;20.910;2023-04-01T05:43:31;98219.81;;;8.76;100.00
35331;BME280;21441;52.190;20.910;2023-04-01T05:46:00;98224.88;;;8.91;100.00
35331;BME280;21441;52.190;20.910;2023-04-01T05:48:27;98218.13;;;8.95;100.00
35331;BME280;21441;52.190;20.910;2023-04-01T05:50:54;98225.31;;;8.87;100.00
35331;BME280;21441;52.190;20.910;2023-04-01T05:53:21;98220.19;;;8.86;100.00
35331;BME280;21441;52.190;20.910;2023-04-01T05:55:48;98226.09;;;8.95;100.00
35331;BME280;21441;52.190;20.910;2023-04-01T05:58:16;98230.47;;;8.69;100.00
35331;BME280;21441;52.190;20.910;2023-04-01T06:00:43;98231.06;;;8.71;100.00
35331;BME280;21441;52.190;20.910;2023-04-01T06:03:12;98228.19;;;8.79;100.00
35331;BME280;21441;52.190;20.910;2023-04-01T06:05:41;98230.47;;;8.62;100.00
35331;BME280;21441;52.190;20.910;2023-04-01T06:08:13;98226.13;;;8.88;100.00
35331;BME280;21441;52.190;20.910;2023-04-01T06:10:53;98230.56;;;9.07;100.00
35331;BME280;21441;52.190;20.910;2023-04-01T06:13:34;98230.66;;;9.33;100.00
35331;BME280;21441;52.190;20.910;2023-04-01T06:16:11;98239.59;;;9.52;100.00
35331;BME280;21441;52.190;20.910;2023-04-01T06:21:48;98240.13;;;9.67;100.00
35331;BME280;21441;52.190;20.910;2023-04-01T06:24:28;98246.78;;;9.83;100.00
35331;BME280;21441;52.190;20.910;2023-04-01T06:27:06;98240.53;;;9.96;100.00
35331;BME280;21441;52.190;20.910;2023-04-01T06:30:02;98244.25;;;9.88;100.00
35331;BME280;21441;52.190;20.910;2023-04-01T06:32:54;98240.69;;;9.30;100.00
35331;BME280;21441;52.190;20.910;2023-04-01T06:35:51;98239.06;;;9.29;100.00
35331;BME280;21441;52.190;20.910;2023-04-01T06:38:58;98239.00;;;9.43;100.00
35331;BME280;21441;52.190;20.910;2023-04-01T06:41:59;98242.25;;;9.52;100.00
35331;BME280;21441;52.190;20.910;2023-04-01T06:44:39;98241.34;;;9.26;100.00
35331;BME280;21441;52.190;20.910;2023-04-01T06:47:21;98242.13;;;9.33;100.00
35331;BME280;21441;52.190;20.910;2023-04-01T06:49:56;98245.91;;;9.50;100.00
35331;BME280;21441;52.190;20.910;2023-04-01T06:52:35;98242.31;;;9.38;100.00
35331;BME280;21441;52.190;20.910;2023-04-01T06:55:17;98242.50;;;9.37;100.00
35331;BME280;21441;52.190;20.910;2023-04-01T06:57:48;98247.63;;;9.38;100.00
35331;BME280;21441;52.190;20.910;2023-04-01T07:00:22;98242.97;;;9.27;100.00
35331;BME280;21441;52.190;20.910;2023-04-01T07:02:54;98246.06;;;9.17;100.00
35331;BME280;21441;52.190;20.910;2023-04-01T07:05:30;98250.50;;;9.37;100.00
35331;BME280;21441;52.190;20.910;2023-04-01T07:08:02;98257.66;;;9.43;100.00
35331;BME280;21441;52.190;20.910;2023-04-01T07:10:35;98251.50;;;9.42;100.00
35331;BME280;21441;52.190;20.910;2023-04-01T07:13:10;98249.56;;;9.11;100.00
35331;BME280;21441;52.190;20.910;2023-04-01T07:15:42;98248.41;;;8.94;100.00
35331;BME280;21441;52.190;20.910;2023-04-01T07:18:12;98239.75;;;9.12;100.00
35331;BME280;21441;52.190;20.910;2023-04-01T07:20:40;98253.03;;;9.18;100.00
35331;BME280;21441;52.190;20.910;2023-04-01T07:23:15;98246.31;;;9.54;100.00
35331;BME280;21441;52.190;20.910;2023-04-01T07:25:44;98254.97;;;9.43;100.00
35331;BME280;21441;52.190;20.910;2023-04-01T07:28:15;98244.13;;;9.44;100.00
35331;BME280;21441;52.190;20.910;2023-04-01T07:30:51;98240.28;;;9.34;100.00
35331;BME280;21441;52.190;20.910;2023-04-01T07:33:23;98250.94;;;9.72;100.00
35331;BME280;21441;52.190;20.910;2023-04-01T07:35:55;98253.69;;;9.90;100.00
35331;BME280;21441;52.190;20.910;2023-04-01T07:38:32;98259.44;;;9.56;100.00
35331;BME280;21441;52.190;20.910;2023-04-01T07:41:08;98248.66;;;9.37;100.00
35331;BME280;21441;52.190;20.910;2023-04-01T07:43:45;98251.91;;;9.39;100.00
35331;BME280;21441;52.190;20.910;2023-04-01T07:46:29;98253.28;;;9.55;100.00
35331;BME280;21441;52.190;20.910;2023-04-01T07:49:04;98248.91;;;9.29;100.00
35331;BME280;21441;52.190;20.910;2023-04-01T07:51:41;98249.69;;;9.36;100.00
35331;BME280;21441;52.190;20.910;2023-04-01T07:54:17;98249.41;;;9.51;100.00
35331;BME280;21441;52.190;20.910;2023-04-01T07:56:51;98247.44;;;10.03;100.00
35331;BME280;21441;52.190;20.910;2023-04-01T07:59:25;98256.56;;;9.89;100.00
35331;BME280;21441;52.190;20.910;2023-04-01T08:02:05;98253.00;;;10.02;100.00
35331;BME280;21441;52.190;20.910;2023-04-01T08:04:45;98264.16;;;9.54;100.00
35331;BME280;21441;52.190;20.910;2023-04-01T08:07:17;98260.75;;;9.40;100.00
35331;BME280;21441;52.190;20.910;2023-04-01T08:09:54;98263.78;;;9.82;100.00
35331;BME280;21441;52.190;20.910;2023-04-01T08:12:35;98262.13;;;9.81;100.00
35331;BME280;21441;52.190;20.910;2023-04-01T08:15:12;98262.66;;;9.96;100.00
35331;BME280;21441;52.190;20.910;2023-04-01T08:17:51;98268.75;;;9.71;100.00
35331;BME280;21441;52.190;20.910;2023-04-01T08:20:28;98264.72;;;9.62;100.00
35331;BME280;21441;52.190;20.910;2023-04-01T08:22:59;98266.34;;;9.63;100.00
35331;BME280;21441;52.190;20.910;2023-04-01T08:25:30;98280.56;;;9.44;100.00
35331;BME280;21441;52.190;20.910;2023-04-01T08:28:03;98268.59;;;9.66;100.00
35331;BME280;21441;52.190;20.910;2023-04-01T08:30:42;98270.97;;;9.36;100.00
35331;BME280;21441;52.190;20.910;2023-04-01T08:33:15;98274.44;;;9.37;100.00
35331;BME280;21441;52.190;20.910;2023-04-01T08:35:47;98277.38;;;9.15;100.00
35331;BME280;21441;52.190;20.910;2023-04-01T08:38:21;98279.31;;;8.88;100.00
35331;BME280;21441;52.190;20.910;2023-04-01T08:40:57;98282.41;;;8.85;100.00
35331;BME280;21441;52.190;20.910;2023-04-01T08:43:42;98287.66;;;9.05;100.00
35331;BME280;21441;52.190;20.910;2023-04-01T08:46:46;98281.31;;;9.06;100.00
35331;BME280;21441;52.190;20.910;2023-04-01T08:49:30;98287.44;;;9.00;100.00
35331;BME280;21441;52.190;20.910;2023-04-01T08:55:22;98284.53;;;9.73;100.00
35331;BME280;21441;52.190;20.910;2023-04-01T08:57:59;98287.19;;;9.73;100.00
35331;BME280;21441;52.190;20.910;2023-04-01T09:00:33;98287.56;;;9.77;100.00
35331;BME280;21441;52.190;20.910;2023-04-01T09:03:29;98293.69;;;9.84;100.00
35331;BME280;21441;52.190;20.910;2023-04-01T09:06:17;98291.06;;;9.77;100.00
35331;BME280;21441;52.190;20.910;2023-04-01T09:09:09;98295.19;;;9.73;100.00
35331;BME280;21441;52.190;20.910;2023-04-01T09:12:02;98292.91;;;9.70;100.00
35331;BME280;21441;52.190;20.910;2023-04-01T09:15:02;98294.88;;;9.88;100.00
35331;BME280;21441;52.190;20.910;2023-04-01T09:17:51;98297.94;;;9.91;100.00
35331;BME280;21441;52.190;20.910;2023-04-01T09:20:42;98297.47;;;10.01;100.00
35331;BME280;21441;52.190;20.910;2023-04-01T09:23:40;98306.31;;;9.95;100.00
35331;BME280;21441;52.190;20.910;2023-04-01T09:26:29;98306.00;;;9.78;100.00
35331;BME280;21441;52.190;20.910;2023-04-01T09:29:05;98301.50;;;9.34;100.00
35331;BME280;21441;52.190;20.910;2023-04-01T09:31:59;98299.91;;;9.13;100.00
35331;BME280;21441;52.190;20.910;2023-04-01T09:34:49;98306.50;;;8.97;100.00
35331;BME280;21441;52.190;20.910;2023-04-01T09:37:21;98302.53;;;9.26;100.00
35331;BME280;21441;52.190;20.910;2023-04-01T09:40:03;98311.19;;;9.08;100.00
35331;BME280;21441;52.190;20.910;2023-04-01T09:42:43;98315.06;;;9.12;100.00
35331;BME280;21441;52.190;20.910;2023-04-01T09:45:25;98309.88;;;9.30;100.00
35331;BME280;21441;52.190;20.910;2023-04-01T09:48:09;98309.38;;;9.60;100.00
35331;BME280;21441;52.190;20.910;2023-04-01T09:50:49;98312.97;;;9.73;100.00
35331;BME280;21441;52.190;20.910;2023-04-01T09:53:30;98311.66;;;9.95;100.00
35331;BME280;21441;52.190;20.910;2023-04-01T10:12:11;98324.59;;;9.40;100.00
35331;BME280;21441;52.190;20.910;2023-04-01T10:18:27;98323.69;;;10.36;100.00
35331;BME280;21441;52.190;20.910;2023-04-01T10:21:12;98327.66;;;10.59;100.00
35331;BME280;21441;52.190;20.910;2023-04-01T10:30:06;98328.63;;;9.56;100.00
35331;BME280;21441;52.190;20.910;2023-04-01T10:33:08;98330.78;;;9.79;100.00
35331;BME280;21441;52.190;20.910;2023-04-01T10:39:24;98339.31;;;9.94;100.00
35331;BME280;21441;52.190;20.910;2023-04-01T10:42:15;98332.78;;;10.22;100.00
35331;BME280;21441;52.190;20.910;2023-04-01T10:45:27;98331.16;;;10.52;100.00
35331;BME280;21441;52.190;20.910;2023-04-01T10:48:24;98330.06;;;10.85;100.00
35331;BME280;21441;52.190;20.910;2023-04-01T10:51:10;98333.88;;;10.96;100.00
35331;BME280;21441;52.190;20.910;2023-04-01T10:54:32;98328.81;;;10.88;100.00
35331;BME280;21441;52.190;20.910;2023-04-01T10:57:25;98322.50;;;10.82;100.00
35331;BME280;21441;52.190;20.910;2023-04-01T11:00:13;98338.16;;;10.97;100.00
35331;BME280;21441;52.190;20.910;2023-04-01T11:03:10;98329.81;;;11.12;100.00
35331;BME280;21441;52.190;20.910;2023-04-01T11:12:58;98344.44;;;11.28;100.00
35331;BME280;21441;52.190;20.910;2023-04-01T11:19:17;98347.25;;;11.33;100.00
35331;BME280;21441;52.190;20.910;2023-04-01T11:22:10;98337.81;;;11.30;100.00
35331;BME280;21441;52.190;20.910;2023-04-01T11:28:04;98337.44;;;11.08;100.00
35331;BME280;21441;52.190;20.910;2023-04-01T11:30:49;98336.94;;;11.18;100.00
35331;BME280;21441;52.190;20.910;2023-04-01T11:33:27;98320.06;;;11.24;100.00
35331;BME280;21441;52.190;20.910;2023-04-01T11:36:18;98336.22;;;11.29;100.00
35331;BME280;21441;52.190;20.910;2023-04-01T11:39:00;98344.75;;;10.94;100.00
35331;BME280;21441;52.190;20.910;2023-04-01T11:41:36;98333.88;;;10.46;100.00
35331;BME280;21441;52.190;20.910;2023-04-01T11:44:16;98319.31;;;10.17;100.00
35331;BME280;21441;52.190;20.910;2023-04-01T11:47:09;98333.84;;;10.14;100.00
35331;BME280;21441;52.190;20.910;2023-04-01T11:50:11;98334.13;;;10.06;100.00
35331;BME280;21441;52.190;20.910;2023-04-01T11:53:09;98334.00;;;10.32;100.00
35331;BME280;21441;52.190;20.910;2023-04-01T11:55:49;98330.91;;;10.61;100.00
35331;BME280;21441;52.190;20.910;2023-04-01T11:58:27;98340.34;;;10.82;100.00
35331;BME280;21441;52.190;20.910;2023-04-01T12:01:07;98342.84;;;11.02;100.00
35331;BME280;21441;52.190;20.910;2023-04-01T12:03:50;98346.97;;;10.98;100.00
35331;BME280;21441;52.190;20.910;2023-04-01T12:06:30;98341.66;;;10.72;100.00
35331;BME280;21441;52.190;20.910;2023-04-01T12:09:04;98345.03;;;10.86;100.00
35331;BME280;21441;52.190;20.910;2023-04-01T12:11:39;98348.28;;;11.32;100.00
35331;BME280;21441;52.190;20.910;2023-04-01T12:14:16;98343.69;;;11.94;100.00
35331;BME280;21441;52.190;20.910;2023-04-01T12:16:57;98341.94;;;12.00;100.00
35331;BME280;21441;52.190;20.910;2023-04-01T12:19:34;98347.34;;;12.66;100.00
35331;BME280;21441;52.190;20.910;2023-04-01T12:22:17;98332.84;;;13.44;100.00
35331;BME280;21441;52.190;20.910;2023-04-01T12:24:47;98341.28;;;14.22;100.00
35331;BME280;21441;52.190;20.910;2023-04-01T12:27:41;98340.34;;;14.28;99.62
35331;BME280;21441;52.190;20.910;2023-04-01T12:30:39;98347.56;;;14.73;91.24
35331;BME280;21441;52.190;20.910;2023-04-01T12:33:50;98341.06;;;16.13;79.26
35331;BME280;21441;52.190;20.910;2023-04-01T12:36:30;98337.94;;;16.81;68.46
35331;BME280;21441;52.190;20.910;2023-04-01T12:39:15;98338.50;;;17.25;64.66
35331;BME280;21441;52.190;20.910;2023-04-01T12:41:52;98339.03;;;17.22;61.10
35331;BME280;21441;52.190;20.910;2023-04-01T12:44:42;98342.84;;;16.57;62.23
35331;BME280;21441;52.190;20.910;2023-04-01T12:50:27;98341.19;;;17.20;61.70
35331;BME280;21441;52.190;20.910;2023-04-01T12:55:59;98327.44;;;16.47;59.92
35331;BME280;21441;52.190;20.910;2023-04-01T13:01:37;98332.16;;;16.67;62.87
35331;BME280;21441;52.190;20.910;2023-04-01T13:04:30;98331.06;;;16.63;61.81
35331;BME280;21441;52.190;20.910;2023-04-01T13:07:13;98331.81;;;17.28;58.99
35331;BME280;21441;52.190;20.910;2023-04-01T13:09:48;98336.44;;;16.63;61.67
35331;BME280;21441;52.190;20.910;2023-04-01T13:12:46;98337.25;;;16.63;63.67
35331;BME280;21441;52.190;20.910;2023-04-01T13:15:36;98337.44;;;15.75;65.71
35331;BME280;21441;52.190;20.910;2023-04-01T13:21:04;98351.63;;;13.73;82.75
35331;BME280;21441;52.190;20.910;2023-04-01T13:23:42;98363.25;;;13.78;89.59
35331;BME280;21441;52.190;20.910;2023-04-01T13:26:18;98370.19;;;14.03;90.85
35331;BME280;21441;52.190;20.910;2023-04-01T13:28:53;98375.25;;;14.16;93.82
35331;BME280;21441;52.190;20.910;2023-04-01T13:31:38;98373.94;;;13.90;100.00
35331;BME280;21441;52.190;20.910;2023-04-01T13:34:27;98382.31;;;13.53;100.00
35331;BME280;21441;52.190;20.910;2023-04-01T13:37:09;98379.22;;;13.73;99.08
35331;BME280;21441;52.190;20.910;2023-04-01T13:39:52;98373.38;;;13.88;97.54
35331;BME280;21441;52.190;20.910;2023-04-01T13:42:24;98375.69;;;15.43;85.50
35331;BME280;21441;52.190;20.910;2023-04-01T13:44:56;98377.22;;;16.49;73.04
35331;BME280;21441;52.190;20.910;2023-04-01T13:47:56;98385.38;;;16.05;72.51
35331;BME280;21441;52.190;20.910;2023-04-01T13:50:37;98385.38;;;15.61;77.31
35331;BME280;21441;52.190;20.910;2023-04-01T13:53:20;98389.94;;;14.88;82.24
35331;BME280;21441;52.190;20.910;2023-04-01T13:56:02;98399.00;;;14.24;88.68
35331;BME280;21441;52.190;20.910;2023-04-01T13:58:47;98396.88;;;13.57;96.73
35331;BME280;21441;52.190;20.910;2023-04-01T14:01:25;98395.28;;;12.67;100.00
35331;BME280;21441;52.190;20.910;2023-04-01T14:04:14;98397.00;;;12.50;100.00
35331;BME280;21441;52.190;20.910;2023-04-01T14:06:56;98402.28;;;12.38;100.00
35331;BME280;21441;52.190;20.910;2023-04-01T14:12:39;98409.63;;;12.43;100.00
35331;BME280;21441;52.190;20.910;2023-04-01T14:15:18;98406.41;;;12.22;100.00
35331;BME280;21441;52.190;20.910;2023-04-01T14:18:00;98405.09;;;12.13;100.00
35331;BME280;21441;52.190;20.910;2023-04-01T14:20:38;98414.31;;;12.17;100.00
35331;BME280;21441;52.190;20.910;2023-04-01T14:23:21;98407.94;;;12.00;100.00
35331;BME280;21441;52.190;20.910;2023-04-01T14:26:15;98414.78;;;11.95;100.00
35331;BME280;21441;52.190;20.910;2023-04-01T14:28:56;98419.19;;;11.83;100.00
35331;BME280;21441;52.190;20.910;2023-04-01T14:31:42;98415.47;;;11.66;100.00
35331;BME280;21441;52.190;20.910;2023-04-01T14:34:21;98430.22;;;11.31;100.00
35331;BME280;21441;52.190;20.910;2023-04-01T14:37:01;98426.22;;;11.41;100.00
35331;BME280;21441;52.190;20.910;2023-04-01T14:42:48;98435.38;;;11.51;100.00